Karlovy Vary, Czech Republic

3:01 PM CEST on August 28, 2015 (GMT +0200)
IKARLOVA12 | | Change Station
CLOSE
Current Station
Personal Weather Station
Location: Hroznetin, Karlovarsky kraj
Elevation: 1476 ft
Nearby Weather Stations

Elev 1476 ft 50.31 °N, 12.87 °E | Updated 9 minutes ago

Overcast
Overcast
74.1 °F
Feels Like 76 °F
N
6.0
Wind Variable Wind from WSW
Gusts 14.0 mph

Today
High -- | Low -- °F
--% Chance of Precip.
Yesterday
High -- | Low -- °F
Precip. -- in
6:16 AM 8:01 PM
Waxing Gibbous, 98% visible
Pressure 30.06 in
Visibility 6.2 miles
Clouds Mostly Cloudy 4600 ft
Mostly Cloudy 5500 ft
Overcast 9000 ft
Heat Index 76 °F
Dew Point 64 °F
Humidity 72%
Rainfall 0.00 in
Snow Depth Not available.
UV 2 out of 12
Pollen Not available.
Air Quality Not available.
Flu Activity Not available.
METAR ETIC 281258Z AUTO 25008KT 9999 BKN046 BKN055 OVC090 25/16 A3010 RMK AO2 RAB22E23DZB23E35 SLP180 P0000 T02460160
Pressure 30.06 in
Visibility 6.2 miles
Clouds Mostly Cloudy 4600 ft
Mostly Cloudy 5500 ft
Overcast 9000 ft
Heat Index 76 °F
Dew Point 64 °F
Humidity 72%
Rainfall 0.00 in
Snow Depth Not available.
UV 2 out of 12
Pollen Not available.
Air Quality Not available.
Flu Activity Not available.
METAR ETIC 281258Z AUTO 25008KT 9999 BKN046 BKN055 OVC090 25/16 A3010 RMK AO2 RAB22E23DZB23E35 SLP180 P0000 T02460160

10-Day Weather Forecast

×

Almanac

Astronomy

Aug. 28, 2015 Rise Set
Actual Time
Civil Twilight
Nautical Twilight
Astronomical Twilight
Moon
Length of Visible Light
Length of Day
Tomorrow will be .
, % of the Moon is Illuminated

Today's Extremes

Country Highs Country Lows

Community

WunderPhotos

Upload Photos

1,850,375 photos uploaded!

WunderBlogs® & News

Nearby

Air Quality

  Air Quality AQ Index Pollutant
Not available.

Snow Depth

Station Depth Elevation

Earthquake Activity

City Distance Mag. Time & Date
Minimum magnitude displayed is 2.5.

Coastal Water Temperatures

Place Temperature

Stations

Nearby Weather Stations

Station Location Temp. Windchill Dew Point Humidity Wind Precip. Elev Updated Type